Terminal Aerodrome Forecast
Issued by NWS

Home | Current Version | Previous Version | Text Only | Print | Product List | Glossary On
Versions: 1 2 3 4 5 6 7 8 9 10 11 12 13 14 15
000
FTUS43 KIND 041300 AAA
TAFLAF
TAF AMD
KLAF 041310Z 0413/0512 VRB06KT P6SM -SHRA VCTS BKN070CB
      TEMPO 0413/0415 2SM -TSRA BR OVC030CB
     FM041500 25011G17KT P6SM -SHRA VCTS BKN050CB
     FM050000 VRB04KT P6SM SCT050 BKN100
      AMD LTD TO CLD VIS AND WIND TIL 041300=

USA.gov is the U.S. government's official web portal to all federal, state and local government web resources and services.